createdAt,value
2022-12-13T00:03:02.045Z,100.00
2022-12-13T00:08:03.700Z,100.00
2022-12-13T00:13:05.587Z,100.00
2022-12-13T00:18:06.988Z,100.00
2022-12-13T00:23:08.334Z,100.00
2022-12-13T00:28:10.641Z,100.00
2022-12-13T00:33:12.024Z,100.00
2022-12-13T00:38:13.381Z,100.00
2022-12-13T00:43:14.730Z,100.00
2022-12-13T00:48:16.080Z,100.00
2022-12-13T00:53:17.530Z,100.00
2022-12-13T00:58:19.005Z,100.00
2022-12-13T01:03:20.525Z,100.00
2022-12-13T01:08:22.151Z,100.00
2022-12-13T01:13:23.636Z,100.00
2022-12-13T01:18:25.101Z,100.00
2022-12-13T01:23:27.900Z,100.00
2022-12-13T01:28:29.297Z,100.00
2022-12-13T01:33:31.502Z,100.00
2022-12-13T01:38:37.673Z,100.00
2022-12-13T01:43:39.526Z,100.00
2022-12-13T01:48:47.610Z,100.00
2022-12-13T01:53:50.520Z,100.00
2022-12-13T01:58:55.148Z,100.00
2022-12-13T02:03:56.509Z,100.00
2022-12-13T02:08:58.040Z,100.00
2022-12-13T02:13:59.461Z,100.00
2022-12-13T02:19:43.005Z,100.00
2022-12-13T02:24:59.476Z,100.00
2022-12-13T02:30:39.895Z,100.00
2022-12-13T02:35:53.010Z,100.00
2022-12-13T02:41:05.949Z,100.00
2022-12-13T02:46:09.620Z,100.00
2022-12-13T02:51:12.544Z,100.00
2022-12-13T02:56:14.238Z,100.00
2022-12-13T03:01:32.033Z,100.00
2022-12-13T03:06:45.125Z,100.00
2022-12-13T03:12:11.646Z,100.00
2022-12-13T03:17:16.511Z,100.00
2022-12-13T03:22:17.887Z,100.00
2022-12-13T03:27:19.228Z,100.00
2022-12-13T03:32:20.588Z,100.00
2022-12-13T03:37:22.271Z,100.00
2022-12-13T03:42:23.720Z,100.00
2022-12-13T03:47:25.113Z,100.00
2022-12-13T03:52:26.593Z,100.00
2022-12-13T03:57:28.162Z,100.00
2022-12-13T04:02:30.666Z,100.00
2022-12-13T04:07:34.144Z,100.00
2022-12-13T04:12:36.000Z,100.00
2022-12-13T04:17:37.817Z,100.00
2022-12-13T04:22:39.259Z,100.00
2022-12-13T04:27:40.655Z,100.00
2022-12-13T04:32:42.054Z,100.00
2022-12-13T04:37:44.406Z,100.00
2022-12-13T04:42:45.797Z,100.00
2022-12-13T04:47:47.167Z,100.00
2022-12-13T04:52:48.582Z,100.00
2022-12-13T04:57:49.998Z,100.00
2022-12-13T05:02:51.390Z,100.00
2022-12-13T05:07:52.814Z,100.00
2022-12-13T05:12:54.163Z,100.00
2022-12-13T05:17:59.315Z,100.00
2022-12-13T05:23:01.576Z,100.00
2022-12-13T05:28:26.933Z,100.00
2022-12-13T05:33:25.716Z,100.00
2022-12-13T05:38:27.539Z,100.00
2022-12-13T05:43:41.944Z,100.00
2022-12-13T05:48:44.933Z,100.00
2022-12-13T05:53:51.584Z,100.00
2022-12-13T05:58:54.744Z,100.00
2022-12-13T06:03:56.207Z,100.00
2022-12-13T06:08:59.511Z,100.00
2022-12-13T06:14:01.468Z,100.00
2022-12-13T06:19:04.684Z,100.00
2022-12-13T06:24:06.824Z,100.00
2022-12-13T06:29:08.267Z,100.00
2022-12-13T06:34:14.795Z,100.00
2022-12-13T06:39:17.106Z,100.00
2022-12-13T06:44:18.452Z,100.00
2022-12-13T06:49:19.822Z,100.00
2022-12-13T06:54:23.687Z,100.00
2022-12-13T06:59:25.347Z,100.00
2022-12-13T07:04:29.843Z,100.00
2022-12-13T07:09:34.184Z,100.00
2022-12-13T07:14:41.114Z,100.00
2022-12-13T07:19:43.271Z,100.00
2022-12-13T07:24:44.993Z,100.00
2022-12-13T07:29:46.390Z,100.00
2022-12-13T07:34:47.771Z,100.00
2022-12-13T07:39:49.402Z,100.00
2022-12-13T07:44:50.777Z,100.00
2022-12-13T07:49:52.178Z,100.00
2022-12-13T07:54:53.515Z,100.00
2022-12-13T07:59:55.121Z,100.00
2022-12-13T08:04:56.529Z,100.00
2022-12-13T08:09:58.063Z,100.00
2022-12-13T08:14:59.424Z,100.00
2022-12-13T08:20:00.740Z,100.00
2022-12-13T08:25:02.092Z,100.00
2022-12-13T08:30:04.158Z,100.00
2022-12-13T08:35:06.003Z,100.00
2022-12-13T08:40:07.996Z,100.00
2022-12-13T08:45:10.008Z,100.00
2022-12-13T08:50:11.427Z,100.00
2022-12-13T08:55:14.300Z,100.00
2022-12-13T09:00:18.396Z,100.00
2022-12-13T09:05:34.198Z,100.00
2022-12-13T09:10:38.318Z,100.00
2022-12-13T09:15:51.007Z,100.00
2022-12-13T09:20:52.545Z,100.00
2022-12-13T09:26:05.491Z,100.00
2022-12-13T09:31:17.102Z,100.00
2022-12-13T09:36:21.402Z,100.00
2022-12-13T09:41:31.305Z,100.00
2022-12-13T09:46:44.705Z,100.00
2022-12-13T09:52:04.499Z,99.84
2022-12-13T09:57:32.837Z,100.00
2022-12-13T10:02:43.119Z,99.70
2022-12-13T10:07:44.681Z,99.70
2022-12-13T10:12:52.508Z,97.62
2022-12-13T10:17:55.210Z,97.62
2022-12-13T10:23:31.427Z,97.86
2022-12-13T10:28:26.298Z,96.89
2022-12-13T10:33:31.771Z,96.80
2022-12-13T10:38:41.594Z,95.84
2022-12-13T10:43:42.970Z,95.21
2022-12-13T10:48:50.517Z,96.52
2022-12-13T10:53:54.591Z,94.49
2022-12-13T10:59:26.726Z,93.30
2022-12-13T11:04:33.900Z,92.72
2022-12-13T11:09:38.538Z,91.94
2022-12-13T11:14:51.464Z,93.34
2022-12-13T11:19:57.478Z,92.13
2022-12-13T11:25:05.784Z,90.52
2022-12-13T11:30:19.102Z,89.97
2022-12-13T11:35:29.104Z,89.82
2022-12-13T11:40:41.459Z,85.72
2022-12-13T11:45:47.181Z,87.10
2022-12-13T11:50:52.476Z,86.08
2022-12-13T11:56:24.729Z,85.39
2022-12-13T12:01:32.189Z,82.04
2022-12-13T12:06:47.837Z,81.55
2022-12-13T12:12:00.161Z,81.58
2022-12-13T12:17:04.033Z,78.00
2022-12-13T12:22:14.087Z,80.05
2022-12-13T12:27:43.446Z,76.51
2022-12-13T12:32:54.168Z,76.75
2022-12-13T12:38:17.219Z,76.33
2022-12-13T12:43:38.753Z,79.56
2022-12-13T12:49:08.367Z,79.99
2022-12-13T12:54:31.968Z,80.20
2022-12-13T12:59:39.664Z,79.66
2022-12-13T13:04:47.626Z,76.31
2022-12-13T13:09:50.301Z,77.19
2022-12-13T13:14:56.165Z,77.65
2022-12-13T13:20:23.988Z,79.07
2022-12-13T13:25:33.311Z,78.73
2022-12-13T13:30:35.773Z,77.84
2022-12-13T13:35:43.749Z,78.58
2022-12-13T13:40:45.177Z,78.24
2022-12-13T13:45:49.328Z,79.21
2022-12-13T13:51:28.545Z,78.66
2022-12-13T13:57:07.054Z,79.63
2022-12-13T14:02:47.180Z,78.71
2022-12-13T14:07:54.461Z,79.55
2022-12-13T14:13:52.185Z,79.55
2022-12-13T14:19:21.676Z,79.97
2022-12-13T14:24:41.434Z,79.21
2022-12-13T14:29:48.473Z,79.83
2022-12-13T14:34:50.565Z,80.46
2022-12-13T14:39:52.041Z,81.27
2022-12-13T14:44:53.555Z,80.67
2022-12-13T14:49:55.416Z,82.56
2022-12-13T14:54:59.359Z,82.28
2022-12-13T15:00:20.720Z,82.92
2022-12-13T15:05:34.419Z,84.20
2022-12-13T15:10:42.081Z,84.68
2022-12-13T15:16:00.888Z,85.17
2022-12-13T15:21:02.719Z,85.50
2022-12-13T15:26:28.743Z,84.77
2022-12-13T15:31:34.341Z,85.56
2022-12-13T15:36:38.186Z,85.31
2022-12-13T15:41:46.081Z,84.26
2022-12-13T15:46:49.891Z,84.63
2022-12-13T15:52:00.578Z,85.29
2022-12-13T15:57:10.763Z,85.95
2022-12-13T16:02:20.622Z,87.01
2022-12-13T16:07:25.472Z,87.87
2022-12-13T16:12:37.431Z,88.39
2022-12-13T16:17:40.893Z,88.83
2022-12-13T16:22:43.133Z,87.72
2022-12-13T16:27:45.686Z,87.83
2022-12-13T16:38:25.950Z,86.44
2022-12-13T16:43:34.220Z,86.74
2022-12-13T16:48:36.034Z,86.63
2022-12-13T16:53:37.569Z,86.01
2022-12-13T16:58:38.957Z,85.48
2022-12-13T17:03:40.930Z,85.06
2022-12-13T17:08:42.502Z,84.33
2022-12-13T17:13:43.977Z,84.66
2022-12-13T17:18:45.376Z,86.05
2022-12-13T17:23:46.798Z,86.33
2022-12-13T17:28:48.237Z,86.66
2022-12-13T17:33:49.901Z,86.49
2022-12-13T17:38:51.492Z,87.91
2022-12-13T17:43:52.884Z,88.82
2022-12-13T17:48:54.272Z,89.48
2022-12-13T17:53:55.639Z,88.36
2022-12-13T17:58:59.193Z,88.11
2022-12-13T18:04:00.580Z,87.81
2022-12-13T18:09:02.097Z,85.83
2022-12-13T18:14:05.744Z,84.99
2022-12-13T18:19:10.478Z,85.12
2022-12-13T18:24:12.332Z,84.17
2022-12-13T18:29:14.251Z,84.74
2022-12-13T18:34:15.686Z,84.80
2022-12-13T18:39:17.143Z,84.20
2022-12-13T18:44:18.589Z,85.13
2022-12-13T18:49:19.980Z,83.84
2022-12-13T18:54:21.438Z,83.70
2022-12-13T18:59:23.288Z,83.50
2022-12-13T19:04:24.664Z,83.28
2022-12-13T19:09:26.044Z,83.88
2022-12-13T19:14:28.324Z,83.93
2022-12-13T19:19:29.648Z,84.24
2022-12-13T19:24:31.057Z,84.81
2022-12-13T19:29:32.532Z,85.14
2022-12-13T19:34:34.534Z,85.62
2022-12-13T19:39:36.047Z,86.32
2022-12-13T19:44:37.455Z,85.87
2022-12-13T19:49:38.940Z,85.73
2022-12-13T19:54:40.371Z,85.96
2022-12-13T19:59:41.788Z,85.69
2022-12-13T20:04:43.353Z,85.92
2022-12-13T20:09:44.770Z,86.42
2022-12-13T20:14:46.180Z,86.66
2022-12-13T20:19:47.568Z,86.09
2022-12-13T20:24:50.058Z,85.40
2022-12-13T20:29:51.436Z,86.14
2022-12-13T20:34:55.120Z,85.16
2022-12-13T20:39:56.685Z,85.78
2022-12-13T20:44:58.085Z,85.87
2022-12-13T20:49:59.509Z,85.89
2022-12-13T20:55:00.896Z,86.42
2022-12-13T21:00:03.280Z,86.40
2022-12-13T21:05:04.931Z,86.84
2022-12-13T21:10:06.976Z,86.36
2022-12-13T21:15:08.876Z,85.43
2022-12-13T21:20:10.341Z,86.52
2022-12-13T21:25:11.722Z,87.19
2022-12-13T21:30:13.529Z,87.73
2022-12-13T21:35:14.931Z,87.98
2022-12-13T21:40:16.546Z,87.46
2022-12-13T21:45:17.976Z,87.27
2022-12-13T21:50:19.414Z,86.86
2022-12-13T22:00:43.800Z,84.72
2022-12-13T22:05:45.180Z,84.51
2022-12-13T22:10:46.512Z,84.98
2022-12-13T22:15:47.867Z,84.81
2022-12-13T22:20:57.109Z,85.04
2022-12-13T22:25:58.501Z,84.29
2022-12-13T22:30:59.882Z,85.01
2022-12-13T22:36:01.286Z,84.74
2022-12-13T22:41:06.123Z,84.32
2022-12-13T22:46:10.105Z,83.83
2022-12-13T22:51:14.208Z,83.24
2022-12-13T22:56:21.487Z,83.03
2022-12-13T23:01:28.674Z,82.87
2022-12-13T23:06:32.585Z,82.31
2022-12-13T23:11:34.540Z,82.47
2022-12-13T23:16:36.701Z,82.26
2022-12-13T23:21:38.538Z,82.03
2022-12-13T23:26:40.025Z,82.16
2022-12-13T23:31:42.890Z,82.19
2022-12-13T23:36:50.394Z,82.49
2022-12-13T23:41:51.789Z,83.07
2022-12-13T23:46:53.151Z,82.30
2022-12-13T23:51:54.525Z,82.55
2022-12-13T23:56:55.970Z,82.74
